world map with PEK marked

PEK - Airport

This information may not be accurate or current and is not valid for navigation or flight planning. No warranty of fitness for any purpose is made or implied.

flag of China

Donate via PayPal

Additional information is available on the NEW Great Circle Mapper

Location
City:  Beijing, Beijing, China
Near (Alt.):Peking
Name:Capital Airport
ICAO / IATA:ZBAA / PEK

Details
Type:Airport (Aerodrome, Airfield)
Use:Public/Civil
Latitude:40°04'N (40.073)
Longitude:116°36'E (116.598)
Elevation:115 ft (35 m)
Runways:3
Longest:12467 × 197 ft (3800 × 60 m)

Time
Timezone:UTC+8 (DST+10)
Local Time:

Weather
METAR:ZBAA  180200Z 25004MPS 210V280 CAVOK 01/M20 Q1035 NOSIG
TAF:ZBAA  (expired)

Related Locations
Nearby:
Farthest:CPG: 12378 mi / 19920 km
Carmen de Patagones, B, AR

Find:

   beyond  
but within

Other Information
Maps:
Links:
Sources:

  

Airport Diagram

Airport diagram for PEK

Airport diagram PDF

 


Great Circle Mapper   Great Circle Mapper
Great Circle Mapper FAQ   Great Circle Mapper FAQ
  Karl's Home Page
KLSē   KLSē Home
   GC on Facebook
Airlines of the World   Airlines of the World
Donate via PayPal


Copyright © 2004-2017, Karl L. Swartz. All rights reserved.
All trademarks mentioned herein belong to their respective owners.

Please see credits for attribution and copyright information.

Karl Swartz <karl@kls2.com>
  Powered by FreeBSD
Valid HTML 4.01!
Labeled with ICRA
hCard Microformat
Geo Microformat